Buoy 33880

sailwx.info

Track history (hours):
 
Tides and Currents Weather Stations Pressure Air Temp Water Temp Dewpoint Dewpoint Depression Visibility Wind Speed Wind Dir Waves Ship Positions

Drifting buoy 33880

Last reported at 2016-Feb-08 14:00 UTC. Time now 2016-Feb-08 18:55 UTC.
Position S 53°47' W 062°16'.

Barometer 992.2 mb
Water temperature 7.1 ° C

Date/timePositionNaut miles runAvg speedWind from/ knotsBaromVisibWave heightAir tempDewpointWater temp
2016-Feb-08 14:00S 53°47' W 062°16'0 0.0 992.2 7.1
2016-Feb-08 13:00S 53°47' W 062°16'2 1.1 992.3 7.1
2016-Feb-08 11:00S 53°48' W 062°13'5 0.8 993.4 7.2
2016-Feb-08 05:00S 53°53' W 062°16'0 0.0 997.1 7.1
2016-Feb-08 04:00S 53°53' W 062°16'1 1.3 997.6 7.2
2016-Feb-08 03:00S 53°52' W 062°18'2 1.2 997.8 7.2
2016-Feb-08 01:00S 53°49' W 062°18'2 0.9 998.8 7.4
2016-Feb-07 23:00S 53°50' W 062°14'3 1.1 999.8 7.4
2016-Feb-07 20:00S 53°53' W 062°13'0 0.0 1002.6 7.4
2016-Feb-07 19:00S 53°53' W 062°13'2 2.4 1003.8 7.4
2016-Feb-07 18:00S 53°53' W 062°17'0 0.0 1004.9 7.3
2016-Feb-07 14:00S 53°53' W 062°17'0 0.2 1006.7 7.3
2016-Feb-07 13:00S 53°53' W 062°18'1 0.8 1007.2 7.4
2016-Feb-07 12:00S 53°53' W 062°19'1 0.6 1008.2 7.3
2016-Feb-07 11:00S 53°52' W 062°19'1 0.5 1008.8 7.2
2016-Feb-07 10:00S 53°52' W 062°19'2 0.6 1009.3 7.3
2016-Feb-07 06:00S 53°54' W 062°16'1 0.8 1012.2 7.8
2016-Feb-07 05:00S 53°55' W 062°15'1 0.2 1013.0 7.9
2016-Feb-06 22:00S 53°55' W 062°16'1 0.3 1015.6 8.9
2016-Feb-06 20:00S 53°56' W 062°16'1 0.3 1016.3 9.2
2016-Feb-06 18:00S 53°55' W 062°16'1 0.1 1017.3 8.4
2016-Feb-06 11:00S 53°55' W 062°15'3 0.8 1017.7 7.1
2016-Feb-06 08:00S 53°58' W 062°15'0 0.0 1017.1 7.1
2016-Feb-06 07:00S 53°58' W 062°15'3 0.6 1017.5 7.1
2016-Feb-06 02:00S 53°57' W 062°20'3 0.9 1019.9 7.2
2016-Feb-05 23:00S 53°54' W 062°20'3 2.9 1020.8 7.3
2016-Feb-05 22:00S 53°55' W 062°15'2 0.9 1020.7 7.4
2016-Feb-05 20:00S 53°57' W 062°15'0 0.0 1021.2 7.3
2016-Feb-05 19:00S 53°57' W 062°15'3 3.0 1020.8 7.3
2016-Feb-05 18:00S 53°57' W 062°20'3 0.4 1020.7 7.2
2016-Feb-05 09:00S 53°55' W 062°17'3 0.4 1017.5 6.9
2016-Feb-05 00:00S 53°57' W 062°19'1 0.8 1017.6 6.9
2016-Feb-04 23:00S 53°57' W 062°20'0 0.5 1017.2 6.9
2016-Feb-04 22:00S 53°57' W 062°19'1 0.4 1016.7 6.9
2016-Feb-04 19:00S 53°56' W 062°17'3 1.4 1015.2 6.9
2016-Feb-04 17:00S 53°59' W 062°16'0 0.0 1013.5 1.6
2016-Feb-04 15:00S 53°59' W 062°16'0 0.0 1011.7 6.8
2016-Feb-04 14:00S 53°59' W 062°16'1 0.5 1010.5 4.6
2016-Feb-04 12:00S 53°59' W 062°18'1 0.3 1008.3 4.7
2016-Feb-04 10:00S 53°58' W 062°18'0 0.3 1005.9 4.6
2016-Feb-04 09:00S 53°58' W 062°19'2 0.3 1004.6 6.0
2016-Feb-04 01:00S 53°60' W 062°20'1 0.8 995.9 6.7
2016-Feb-04 00:00S 53°59' W 062°21'2 0.2 994.5 3.9
2016-Feb-03 12:00S 53°57' W 062°22'0 0.0 998.6 5.0
2016-Feb-03 11:00S 53°57' W 062°22'1 0.4 999.9 2.1
2016-Feb-03 08:00S 53°56' W 062°23'3 0.6 1005.9 1.6
2016-Feb-03 03:00S 53°58' W 062°20'2 0.2 1010.9 4.4
2016-Feb-02 17:00S 53°56' W 062°22'1 0.2 1018.9 3.2
2016-Feb-02 13:00S 53°57' W 062°23'2 0.9 1019.8 2.7
2016-Feb-02 11:00S 53°56' W 062°25'0 0.1 1020.0 1.3
2016-Feb-02 10:00S 53°56' W 062°25'2 1.1 1020.0 2.4
2016-Feb-02 08:00S 53°55' W 062°28'2 1.7 1019.0 3.6
2016-Feb-02 07:00S 53°54' W 062°26'1 0.7 1018.9 4.5
2016-Feb-02 06:00S 53°53' W 062°25'1 0.5 1018.3 6.5
2016-Feb-02 03:00S 53°54' W 062°23'1 0.2 1016.3 5.8
2016-Feb-01 21:00S 53°55' W 062°25'0 0.0 1009.8 1.5
2016-Feb-01 20:00S 53°55' W 062°25'4 0.3 1008.1 5.1
2016-Feb-01 09:00S 53°55' W 062°31'1 0.5 1012.9 3.0
2016-Feb-01 07:00S 53°54' W 062°31'1 0.3 1014.1 2.7
2016-Feb-01 05:00S 53°53' W 062°31'1 0.6 1015.1 3.5
2016-Feb-01 04:00S 53°53' W 062°30'0 0.0 1015.7 1.2
2016-Feb-01 02:00S 53°53' W 062°30'0 0.2 1016.0 2.2
2016-Feb-01 01:00S 53°53' W 062°30'1 0.3 1016.1 1.5
2016-Jan-31 23:00S 53°53' W 062°31'2 1.1 1016.1 6.6
2016-Jan-31 21:00S 53°51' W 062°33'1 0.5 1015.5 6.6
2016-Jan-31 19:00S 53°51' W 062°34'1 0.5 1014.7 2.4
2016-Jan-31 18:00S 53°50' W 062°35'1 0.6 1014.6 3.3
2016-Jan-31 17:00S 53°51' W 062°34'1 0.2 1014.6 1.3
2016-Jan-31 14:00S 53°50' W 062°35'1 0.1 1014.2 0.7
2016-Jan-31 10:00S 53°50' W 062°36'1 0.6 1015.1 1.2
2016-Jan-31 09:00S 53°50' W 062°35'4 1.1 1014.9 6.5
2016-Jan-31 05:00S 53°48' W 062°41'0 0.1 1014.9 6.3
2016-Jan-31 04:00S 53°48' W 062°41'1 0.2 1015.3 3.7
2016-Jan-31 01:00S 53°48' W 062°40'0 0.0 1016.2 -0.1
2016-Jan-31 00:00S 53°48' W 062°40'0 0.5 1016.0 3.2
2016-Jan-30 23:00S 53°48' W 062°41'0 0.1 1016.3 6.7
2016-Jan-30 21:00S 53°48' W 062°40'1 1.1 1016.5 2.1
2016-Jan-30 20:00S 53°47' W 062°42'3 0.3 1016.8 0.7
2016-Jan-30 11:00S 53°45' W 062°45'1 0.2 1019.0 4.1
2016-Jan-30 06:00S 53°45' W 062°46'1 1.4 1017.9 3.7
2016-Jan-30 05:00S 53°45' W 062°48'1 0.3 1017.3 3.6
2016-Jan-30 01:00S 53°45' W 062°50'1 1.0 1014.9 1.7
2016-Jan-30 00:00S 53°45' W 062°49'1 0.3 1013.3 1.4
2016-Jan-29 20:00S 53°46' W 062°48'0 0.5 1008.4 0.9
2016-Jan-29 19:00S 53°46' W 062°48'1 1.2 1006.8 5.1
2016-Jan-29 18:00S 53°47' W 062°50'0 0.0 1006.6 5.1
2016-Jan-29 14:00S 53°47' W 062°50'   1004.5 5.2
Track history (hours):
 
Tides and Currents Weather Stations Pressure Air Temp Water Temp Dewpoint Dewpoint Depression Visibility Wind Speed Wind Dir Waves Ship Positions

Drifting buoy 33880

Last reported at 2016-Feb-08 14:00 UTC. Time now 2016-Feb-08 18:55 UTC.
Position S 53°47' W 062°16'.

Barometer 992.2 mb
Water temperature 7.1 ° C

Date/timePositionNaut miles runAvg speedWind from/ knotsBaromVisibWave heightAir tempDewpointWater temp
2016-Feb-08 14:00S 53°47' W 062°16'0 0.0 992.2 7.1
2016-Feb-08 13:00S 53°47' W 062°16'2 1.1 992.3 7.1
2016-Feb-08 11:00S 53°48' W 062°13'5 0.8 993.4 7.2
2016-Feb-08 05:00S 53°53' W 062°16'0 0.0 997.1 7.1
2016-Feb-08 04:00S 53°53' W 062°16'1 1.3 997.6 7.2
2016-Feb-08 03:00S 53°52' W 062°18'2 1.2 997.8 7.2
2016-Feb-08 01:00S 53°49' W 062°18'2 0.9 998.8 7.4
2016-Feb-07 23:00S 53°50' W 062°14'3 1.1 999.8 7.4
2016-Feb-07 20:00S 53°53' W 062°13'0 0.0 1002.6 7.4
2016-Feb-07 19:00S 53°53' W 062°13'2 2.4 1003.8 7.4
2016-Feb-07 18:00S 53°53' W 062°17'0 0.0 1004.9 7.3
2016-Feb-07 14:00S 53°53' W 062°17'0 0.2 1006.7 7.3
2016-Feb-07 13:00S 53°53' W 062°18'1 0.8 1007.2 7.4
2016-Feb-07 12:00S 53°53' W 062°19'1 0.6 1008.2 7.3
2016-Feb-07 11:00S 53°52' W 062°19'1 0.5 1008.8 7.2
2016-Feb-07 10:00S 53°52' W 062°19'2 0.6 1009.3 7.3
2016-Feb-07 06:00S 53°54' W 062°16'1 0.8 1012.2 7.8
2016-Feb-07 05:00S 53°55' W 062°15'1 0.2 1013.0 7.9
2016-Feb-06 22:00S 53°55' W 062°16'1 0.3 1015.6 8.9
2016-Feb-06 20:00S 53°56' W 062°16'1 0.3 1016.3 9.2
2016-Feb-06 18:00S 53°55' W 062°16'1 0.1 1017.3 8.4
2016-Feb-06 11:00S 53°55' W 062°15'3 0.8 1017.7 7.1
2016-Feb-06 08:00S 53°58' W 062°15'0 0.0 1017.1 7.1
2016-Feb-06 07:00S 53°58' W 062°15'3 0.6 1017.5 7.1
2016-Feb-06 02:00S 53°57' W 062°20'3 0.9 1019.9 7.2
2016-Feb-05 23:00S 53°54' W 062°20'3 2.9 1020.8 7.3
2016-Feb-05 22:00S 53°55' W 062°15'2 0.9 1020.7 7.4
2016-Feb-05 20:00S 53°57' W 062°15'0 0.0 1021.2 7.3
2016-Feb-05 19:00S 53°57' W 062°15'3 3.0 1020.8 7.3
2016-Feb-05 18:00S 53°57' W 062°20'3 0.4 1020.7 7.2
2016-Feb-05 09:00S 53°55' W 062°17'3 0.4 1017.5 6.9
2016-Feb-05 00:00S 53°57' W 062°19'1 0.8 1017.6 6.9
2016-Feb-04 23:00S 53°57' W 062°20'0 0.5 1017.2 6.9
2016-Feb-04 22:00S 53°57' W 062°19'1 0.4 1016.7 6.9
2016-Feb-04 19:00S 53°56' W 062°17'3 1.4 1015.2 6.9
2016-Feb-04 17:00S 53°59' W 062°16'0 0.0 1013.5 1.6
2016-Feb-04 15:00S 53°59' W 062°16'0 0.0 1011.7 6.8
2016-Feb-04 14:00S 53°59' W 062°16'1 0.5 1010.5 4.6
2016-Feb-04 12:00S 53°59' W 062°18'1 0.3 1008.3 4.7
2016-Feb-04 10:00S 53°58' W 062°18'0 0.3 1005.9 4.6
2016-Feb-04 09:00S 53°58' W 062°19'2 0.3 1004.6 6.0
2016-Feb-04 01:00S 53°60' W 062°20'1 0.8 995.9 6.7
2016-Feb-04 00:00S 53°59' W 062°21'2 0.2 994.5 3.9
2016-Feb-03 12:00S 53°57' W 062°22'0 0.0 998.6 5.0
2016-Feb-03 11:00S 53°57' W 062°22'1 0.4 999.9 2.1
2016-Feb-03 08:00S 53°56' W 062°23'3 0.6 1005.9 1.6
2016-Feb-03 03:00S 53°58' W 062°20'2 0.2 1010.9 4.4
2016-Feb-02 17:00S 53°56' W 062°22'1 0.2 1018.9 3.2
2016-Feb-02 13:00S 53°57' W 062°23'2 0.9 1019.8 2.7
2016-Feb-02 11:00S 53°56' W 062°25'0 0.1 1020.0 1.3
2016-Feb-02 10:00S 53°56' W 062°25'2 1.1 1020.0 2.4
2016-Feb-02 08:00S 53°55' W 062°28'2 1.7 1019.0 3.6
2016-Feb-02 07:00S 53°54' W 062°26'1 0.7 1018.9 4.5
2016-Feb-02 06:00S 53°53' W 062°25'1 0.5 1018.3 6.5
2016-Feb-02 03:00S 53°54' W 062°23'1 0.2 1016.3 5.8
2016-Feb-01 21:00S 53°55' W 062°25'0 0.0 1009.8 1.5
2016-Feb-01 20:00S 53°55' W 062°25'4 0.3 1008.1 5.1
2016-Feb-01 09:00S 53°55' W 062°31'1 0.5 1012.9 3.0
2016-Feb-01 07:00S 53°54' W 062°31'1 0.3 1014.1 2.7
2016-Feb-01 05:00S 53°53' W 062°31'1 0.6 1015.1 3.5
2016-Feb-01 04:00S 53°53' W 062°30'0 0.0 1015.7 1.2
2016-Feb-01 02:00S 53°53' W 062°30'0 0.2 1016.0 2.2
2016-Feb-01 01:00S 53°53' W 062°30'1 0.3 1016.1 1.5
2016-Jan-31 23:00S 53°53' W 062°31'2 1.1 1016.1 6.6
2016-Jan-31 21:00S 53°51' W 062°33'1 0.5 1015.5 6.6
2016-Jan-31 19:00S 53°51' W 062°34'1 0.5 1014.7 2.4
2016-Jan-31 18:00S 53°50' W 062°35'1 0.6 1014.6 3.3
2016-Jan-31 17:00S 53°51' W 062°34'1 0.2 1014.6 1.3
2016-Jan-31 14:00S 53°50' W 062°35'1 0.1 1014.2 0.7
2016-Jan-31 10:00S 53°50' W 062°36'1 0.6 1015.1 1.2
2016-Jan-31 09:00S 53°50' W 062°35'4 1.1 1014.9 6.5
2016-Jan-31 05:00S 53°48' W 062°41'0 0.1 1014.9 6.3
2016-Jan-31 04:00S 53°48' W 062°41'1 0.2 1015.3 3.7
2016-Jan-31 01:00S 53°48' W 062°40'0 0.0 1016.2 -0.1
2016-Jan-31 00:00S 53°48' W 062°40'0 0.5 1016.0 3.2
2016-Jan-30 23:00S 53°48' W 062°41'0 0.1 1016.3 6.7
2016-Jan-30 21:00S 53°48' W 062°40'1 1.1 1016.5 2.1
2016-Jan-30 20:00S 53°47' W 062°42'3 0.3 1016.8 0.7
2016-Jan-30 11:00S 53°45' W 062°45'1 0.2 1019.0 4.1
2016-Jan-30 06:00S 53°45' W 062°46'1 1.4 1017.9 3.7
2016-Jan-30 05:00S 53°45' W 062°48'1 0.3 1017.3 3.6
2016-Jan-30 01:00S 53°45' W 062°50'1 1.0 1014.9 1.7
2016-Jan-30 00:00S 53°45' W 062°49'1 0.3 1013.3 1.4
2016-Jan-29 20:00S 53°46' W 062°48'0 0.5 1008.4 0.9
2016-Jan-29 19:00S 53°46' W 062°48'1 1.2 1006.8 5.1
2016-Jan-29 18:00S 53°47' W 062°50'0 0.0 1006.6 5.1
2016-Jan-29 14:00S 53°47' W 062°50'   1004.5 5.2

Dump ship's entire track history